Time;durP1;ratioP1;P1;durP2;ratioP2;P2;SDS_P1;SDS_P2;PMS_P1;PMS_P2;Temp;Humidity;BMP_temperature;BMP_pressure;BME280_temperature;BME280_humidity;BME280_pressure;Samples;Min_cycle;Max_cycle;Signal;HPM_P1;HPM_P2
2023/04/12 00:00:01;;;;;;;8.17;3.07;;;9.70;98.90;;;;;;5053395;28;20560;-72
2023/04/12 00:02:52;;;;;;;5.70;2.50;;;9.60;98.00;;;;;;5056278;28;20802;-72
2023/04/12 00:05:38;;;;;;;5.57;2.40;;;9.60;98.30;;;;;;5061557;28;20438;-72
2023/04/12 00:08:25;;;;;;;7.20;2.33;;;9.60;99.00;;;;;;5056032;28;20571;-72
2023/04/12 00:11:11;;;;;;;10.40;2.37;;;9.60;98.90;;;;;;5056471;28;20415;-72
2023/04/12 00:13:58;;;;;;;7.90;2.77;;;9.60;99.90;;;;;;5058355;28;20423;-72
2023/04/12 00:16:43;;;;;;;8.83;2.77;;;9.70;99.90;;;;;;5060531;28;20426;-72
2023/04/12 00:19:29;;;;;;;11.17;2.77;;;9.70;99.90;;;;;;5058354;28;20444;-72
2023/04/12 00:22:15;;;;;;;4.70;2.80;;;9.70;99.90;;;;;;5056650;28;20486;-72
2023/04/12 00:25:01;;;;;;;6.67;3.70;;;9.70;99.90;;;;;;5063360;28;20464;-72
2023/04/12 00:27:46;;;;;;;11.40;6.40;;;9.70;99.90;;;;;;5055287;28;20469;-72
2023/04/12 00:30:34;;;;;;;10.47;5.00;;;9.80;99.90;;;;;;5066447;28;20557;-72
2023/04/12 00:33:20;;;;;;;11.23;6.80;;;9.80;99.90;;;;;;5057307;28;20823;-72
2023/04/12 00:36:06;;;;;;;12.83;5.93;;;9.80;99.90;;;;;;5062052;28;20503;-72
2023/04/12 00:38:52;;;;;;;8.20;5.60;;;9.80;99.90;;;;;;5062950;28;20439;-72
2023/04/12 00:41:37;;;;;;;6.80;3.70;;;9.90;99.90;;;;;;5055458;28;20504;-72
2023/04/12 00:44:23;;;;;;;10.30;3.93;;;9.80;99.90;;;;;;5066427;28;20465;-72
2023/04/12 00:47:10;;;;;;;9.10;2.83;;;9.80;99.90;;;;;;5063311;28;20444;-73
2023/04/12 00:49:56;;;;;;;5.97;4.00;;;9.80;99.90;;;;;;5055343;28;20436;-72
2023/04/12 00:52:42;;;;;;;11.03;5.07;;;9.80;99.90;;;;;;5062646;28;20456;-72
2023/04/12 00:55:28;;;;;;;12.13;5.03;;;9.80;99.90;;;;;;5060939;28;20987;-72
2023/04/12 00:58:15;;;;;;;7.40;4.70;;;9.80;99.90;;;;;;5063064;28;20444;-72
2023/04/12 01:01:01;;;;;;;8.87;5.07;;;9.90;99.90;;;;;;5067681;28;20448;-72
2023/04/12 01:03:49;;;;;;;11.10;5.67;;;9.90;99.90;;;;;;5064038;28;20497;-72
2023/04/12 01:06:55;;;;;;;10.37;4.43;;;9.90;99.90;;;;;;5056084;28;20473;-72
2023/04/12 01:09:49;;;;;;;15.70;4.20;;;9.90;99.90;;;;;;5065392;28;20446;-72
2023/04/12 01:12:41;;;;;;;10.80;4.30;;;9.90;99.90;;;;;;5057814;28;20968;-72
2023/04/12 01:15:31;;;;;;;5.50;3.30;;;9.80;99.90;;;;;;5055667;28;20467;-72
2023/04/12 01:18:20;;;;;;;21.13;3.60;;;9.80;99.90;;;;;;5062441;28;20442;-72
2023/04/12 01:21:10;;;;;;;5.87;2.73;;;9.90;99.90;;;;;;5060672;28;20441;-72
2023/04/12 01:24:12;;;;;;;7.70;2.33;;;9.90;99.90;;;;;;5058161;28;20448;-72
2023/04/12 01:27:00;;;;;;;8.20;2.50;;;9.80;99.90;;;;;;5062750;28;20486;-72
2023/04/12 01:29:50;;;;;;;7.40;2.57;;;9.80;99.90;;;;;;5057517;28;20444;-72
2023/04/12 01:32:38;;;;;;;7.07;2.20;;;9.90;99.90;;;;;;5056310;28;20816;-72
2023/04/12 01:35:28;;;;;;;6.33;2.20;;;9.90;99.90;;;;;;5059585;28;20748;-72
2023/04/12 01:38:13;;;;;;;5.60;2.40;;;9.90;99.90;;;;;;5055250;28;20438;-72
2023/04/12 01:41:00;;;;;;;7.40;2.30;;;9.90;99.90;;;;;;5056437;28;20464;-72
2023/04/12 01:43:47;;;;;;;3.97;2.10;;;9.90;99.90;;;;;;5060291;28;20444;-72
2023/04/12 01:46:36;;;;;;;12.20;2.80;;;9.90;99.90;;;;;;5058731;28;20449;-72
2023/04/12 01:49:27;;;;;;;4.73;2.00;;;9.90;99.90;;;;;;5053005;28;20466;-72
2023/04/12 01:52:17;;;;;;;9.93;2.63;;;9.90;99.90;;;;;;5055604;28;20449;-72
2023/04/12 01:55:06;;;;;;;10.20;2.60;;;9.90;99.90;;;;;;5065097;28;20475;-72
2023/04/12 01:57:53;;;;;;;5.20;2.10;;;9.90;99.90;;;;;;5052975;28;20412;-72
2023/04/12 02:00:41;;;;;;;7.90;2.50;;;9.90;99.90;;;;;;5059590;28;20489;-72
2023/04/12 02:03:30;;;;;;;6.83;2.80;;;9.90;99.90;;;;;;5062644;28;20971;-72
2023/04/12 02:06:18;;;;;;;11.93;2.87;;;9.90;99.90;;;;;;5061456;28;20445;-72
2023/04/12 02:09:05;;;;;;;6.33;3.13;;;9.90;99.90;;;;;;5061175;28;20455;-72
2023/04/12 02:11:51;;;;;;;4.93;2.90;;;10.00;99.90;;;;;;5056353;28;21045;-72
2023/04/12 02:14:37;;;;;;;5.93;2.37;;;9.90;99.90;;;;;;5054469;28;20473;-72
2023/04/12 02:17:23;;;;;;;9.93;2.70;;;9.90;99.90;;;;;;5057890;28;20444;-72
2023/04/12 02:20:11;;;;;;;12.07;2.73;;;9.90;99.90;;;;;;5066873;28;20494;-72
2023/04/12 02:22:58;;;;;;;7.30;2.47;;;9.80;99.90;;;;;;5060212;28;20423;-72
2023/04/12 02:25:45;;;;;;;5.57;2.80;;;9.70;99.90;;;;;;5057794;28;20455;-72
2023/04/12 02:28:33;;;;;;;8.30;3.20;;;9.70;99.90;;;;;;5060089;28;20609;-72
2023/04/12 02:31:19;;;;;;;4.80;2.70;;;9.70;99.90;;;;;;5063380;28;20955;-72
2023/04/12 02:34:05;;;;;;;4.90;2.73;;;9.60;99.90;;;;;;5065986;28;21070;-72
2023/04/12 02:36:52;;;;;;;11.20;3.20;;;9.50;99.90;;;;;;5061347;28;20468;-71
2023/04/12 02:39:37;;;;;;;6.50;3.03;;;9.60;99.90;;;;;;5058642;28;20584;-71
2023/04/12 02:42:23;;;;;;;6.20;3.07;;;9.60;99.90;;;;;;5055776;28;20412;-73
2023/04/12 02:45:10;;;;;;;5.80;2.47;;;9.70;99.90;;;;;;5065790;28;20477;-71
2023/04/12 02:47:55;;;;;;;4.97;2.80;;;9.80;99.90;;;;;;5059202;28;20514;-70
2023/04/12 02:50:41;;;;;;;7.13;3.00;;;9.70;99.90;;;;;;5062121;28;20431;-74
2023/04/12 02:53:28;;;;;;;6.03;3.10;;;9.70;99.90;;;;;;5063802;28;20419;-72
2023/04/12 02:56:14;;;;;;;7.10;2.57;;;9.70;99.90;;;;;;5058317;28;20953;-73
2023/04/12 02:59:00;;;;;;;6.30;2.93;;;9.70;99.90;;;;;;5057407;28;20809;-72
2023/04/12 03:01:46;;;;;;;6.43;2.27;;;9.70;99.90;;;;;;5055720;28;20527;-71
2023/04/12 03:04:32;;;;;;;4.03;2.23;;;9.80;99.90;;;;;;5062717;28;21032;-74
2023/04/12 03:07:18;;;;;;;6.07;2.20;;;9.80;99.90;;;;;;5063412;28;20939;-71
2023/04/12 03:10:06;;;;;;;6.10;2.53;;;9.90;99.90;;;;;;5060424;28;20891;-72
2023/04/12 03:12:52;;;;;;;4.87;2.13;;;9.80;99.90;;;;;;5056183;28;20424;-72
2023/04/12 03:15:38;;;;;;;6.13;2.70;;;9.90;99.90;;;;;;5057113;28;20460;-71
2023/04/12 03:18:24;;;;;;;4.03;2.50;;;9.90;99.90;;;;;;5060640;28;20458;-72
2023/04/12 03:21:10;;;;;;;5.83;1.93;;;9.90;99.90;;;;;;5061381;28;20469;-71
2023/04/12 03:23:56;;;;;;;3.90;2.57;;;9.90;99.90;;;;;;5063788;28;20444;-73
2023/04/12 03:26:43;;;;;;;4.10;1.90;;;9.90;99.90;;;;;;5060343;28;20551;-71
2023/04/12 03:29:29;;;;;;;3.90;2.40;;;9.80;99.90;;;;;;5057301;28;20516;-74
2023/04/12 03:32:15;;;;;;;4.60;2.10;;;9.90;99.90;;;;;;5065748;28;20561;-72
2023/04/12 03:35:00;;;;;;;4.97;1.70;;;9.90;99.90;;;;;;5054876;28;20452;-72
2023/04/12 03:37:47;;;;;;;3.00;1.63;;;9.80;99.90;;;;;;5054472;28;20550;-72
2023/04/12 03:40:32;;;;;;;7.63;2.07;;;9.80;99.90;;;;;;5054828;28;20587;-71
2023/04/12 03:43:21;;;;;;;11.20;2.43;;;9.80;99.90;;;;;;5061901;28;20956;-73
2023/04/12 03:46:07;;;;;;;5.43;2.33;;;9.80;99.90;;;;;;5062131;28;20442;-72
2023/04/12 03:48:52;;;;;;;3.50;1.93;;;9.80;99.90;;;;;;5053929;28;20820;-73
2023/04/12 03:51:41;;;;;;;3.80;2.33;;;9.70;99.90;;;;;;5061888;28;20454;-76
2023/04/12 03:54:27;;;;;;;3.17;1.97;;;9.70;99.90;;;;;;5063091;28;20552;-74
2023/04/12 03:57:12;;;;;;;4.23;2.40;;;9.70;99.90;;;;;;5055618;28;20587;-75
2023/04/12 03:59:59;;;;;;;6.33;2.33;;;9.70;99.90;;;;;;5054664;28;20428;-77
2023/04/12 04:02:46;;;;;;;4.13;1.87;;;9.70;99.90;;;;;;5060743;28;20512;-73
2023/04/12 04:05:31;;;;;;;5.33;1.80;;;9.70;99.90;;;;;;5051739;28;21050;-72
2023/04/12 04:08:17;;;;;;;5.63;1.60;;;9.60;99.90;;;;;;5056757;28;20515;-72
2023/04/12 04:11:03;;;;;;;4.60;2.10;;;9.70;99.90;;;;;;5058688;28;21000;-74
2023/04/12 04:13:49;;;;;;;6.17;2.30;;;9.60;99.90;;;;;;5055104;28;20415;-71
2023/04/12 04:16:36;;;;;;;3.40;1.87;;;9.70;99.90;;;;;;5054936;28;20454;-71
2023/04/12 04:19:21;;;;;;;4.73;2.20;;;9.70;99.90;;;;;;5055470;28;20486;-74
2023/04/12 04:22:08;;;;;;;4.23;2.10;;;9.60;99.90;;;;;;5063165;28;20444;-71
2023/04/12 04:24:54;;;;;;;3.97;1.70;;;9.60;99.90;;;;;;5052651;28;20447;-71
2023/04/12 04:27:43;;;;;;;7.67;2.20;;;9.60;99.90;;;;;;5063562;28;20478;-71
2023/04/12 04:30:29;;;;;;;5.10;1.80;;;9.60;99.90;;;;;;5057589;28;20432;-71
2023/04/12 04:33:17;;;;;;;5.87;2.00;;;9.60;99.90;;;;;;5062668;28;20416;-71
2023/04/12 04:36:04;;;;;;;4.93;2.80;;;9.60;99.90;;;;;;5053503;28;20457;-72
2023/04/12 04:38:49;;;;;;;2.73;1.40;;;9.60;99.90;;;;;;5058264;28;20515;-71
2023/04/12 04:41:37;;;;;;;3.60;1.73;;;9.50;99.90;;;;;;5062970;28;20814;-71
2023/04/12 04:44:24;;;;;;;8.47;3.10;;;9.50;99.90;;;;;;5057743;28;20450;-71
2023/04/12 04:47:10;;;;;;;10.53;2.20;;;9.50;99.90;;;;;;5061271;28;20586;-71
2023/04/12 04:49:59;;;;;;;5.80;1.87;;;9.50;99.90;;;;;;5057125;28;20662;-71
2023/04/12 04:52:47;;;;;;;5.50;1.80;;;9.40;99.90;;;;;;5056899;28;20453;-70
2023/04/12 04:55:33;;;;;;;9.10;1.83;;;9.30;99.90;;;;;;5059856;28;21033;-72
2023/04/12 04:58:18;;;;;;;3.67;2.20;;;9.30;99.90;;;;;;5058623;28;20783;-71
2023/04/12 05:01:04;;;;;;;2.20;1.60;;;9.20;99.90;;;;;;5062498;28;20434;-72
2023/04/12 05:03:50;;;;;;;4.50;1.87;;;9.30;99.90;;;;;;5056063;28;21029;-70
2023/04/12 05:06:37;;;;;;;3.63;1.77;;;9.30;99.90;;;;;;5055587;28;20444;-71
2023/04/12 05:09:23;;;;;;;3.27;1.70;;;9.30;99.90;;;;;;5061766;28;20476;-71
2023/04/12 05:12:09;;;;;;;2.77;1.40;;;9.20;99.90;;;;;;5059901;28;20465;-73
2023/04/12 05:14:55;;;;;;;4.40;2.00;;;9.20;99.90;;;;;;5059590;28;20695;-73
2023/04/12 05:17:41;;;;;;;8.90;1.60;;;9.30;99.90;;;;;;5068124;28;20522;-73
2023/04/12 05:20:27;;;;;;;6.33;1.60;;;9.30;99.90;;;;;;5064018;28;20434;-71
2023/04/12 05:23:14;;;;;;;3.17;1.63;;;9.20;99.90;;;;;;5061769;28;20530;-71
2023/04/12 05:26:00;;;;;;;2.47;1.50;;;9.40;99.90;;;;;;5063859;28;20438;-71
2023/04/12 05:28:45;;;;;;;4.57;1.53;;;9.30;99.90;;;;;;5055255;28;20459;-73
2023/04/12 05:31:32;;;;;;;4.40;1.70;;;9.30;99.90;;;;;;5063566;28;20436;-71
2023/04/12 05:34:18;;;;;;;3.07;1.90;;;9.30;99.90;;;;;;5066325;28;20521;-76
2023/04/12 05:37:04;;;;;;;6.40;1.50;;;9.40;99.90;;;;;;5069515;28;20457;-72
2023/04/12 05:39:51;;;;;;;3.10;1.40;;;9.40;99.90;;;;;;5059094;28;20420;-73
2023/04/12 05:42:37;;;;;;;3.90;1.57;;;9.50;99.90;;;;;;5055508;28;20444;-71
2023/04/12 05:45:22;;;;;;;3.20;1.33;;;9.50;99.90;;;;;;5055891;28;21059;-71
2023/04/12 05:48:08;;;;;;;3.63;1.47;;;9.60;99.90;;;;;;5061069;28;20969;-74
2023/04/12 05:50:54;;;;;;;4.33;1.53;;;9.60;99.90;;;;;;5064671;28;20452;-71
2023/04/12 05:53:41;;;;;;;3.23;1.60;;;9.60;99.90;;;;;;5068694;28;20843;-70
2023/04/12 05:56:28;;;;;;;5.10;1.43;;;9.50;99.90;;;;;;5067457;28;20464;-72
2023/04/12 05:59:13;;;;;;;3.60;1.50;;;9.50;99.90;;;;;;5061116;28;20815;-71
2023/04/12 06:02:00;;;;;;;3.50;1.73;;;9.60;99.90;;;;;;5061295;28;20814;-71
2023/04/12 06:04:47;;;;;;;6.90;2.00;;;9.70;99.90;;;;;;5062542;28;20960;-71
2023/04/12 06:07:33;;;;;;;2.80;1.70;;;9.60;99.90;;;;;;5060778;28;20823;-73
2023/04/12 06:10:18;;;;;;;3.27;1.67;;;9.70;99.90;;;;;;5063002;28;20686;-75
2023/04/12 06:13:05;;;;;;;3.20;1.80;;;9.60;99.90;;;;;;5062254;28;20452;-71
2023/04/12 06:15:51;;;;;;;3.70;1.77;;;9.60;99.90;;;;;;5060511;28;20473;-72
2023/04/12 06:18:37;;;;;;;3.10;1.77;;;9.60;99.90;;;;;;5052597;28;20551;-73
2023/04/12 06:21:23;;;;;;;2.73;1.37;;;9.70;99.90;;;;;;5061467;28;20806;-71
2023/04/12 06:24:08;;;;;;;2.37;1.60;;;9.60;99.90;;;;;;5058090;28;20438;-74
2023/04/12 06:26:54;;;;;;;3.60;1.77;;;9.60;99.90;;;;;;5057047;28;20452;-75
2023/04/12 06:29:41;;;;;;;2.90;1.60;;;9.70;99.90;;;;;;5066621;28;20470;-70
2023/04/12 06:32:27;;;;;;;4.23;2.13;;;9.70;99.90;;;;;;5060966;28;20432;-71
2023/04/12 06:35:13;;;;;;;7.33;1.77;;;9.70;99.90;;;;;;5061847;28;20488;-72
2023/04/12 06:37:59;;;;;;;2.47;1.60;;;9.60;99.90;;;;;;5062737;28;20452;-71
2023/04/12 06:40:44;;;;;;;2.80;1.70;;;9.60;99.90;;;;;;5063123;28;20427;-71
2023/04/12 06:43:30;;;;;;;3.37;1.80;;;9.60;99.90;;;;;;5069899;28;20430;-72
2023/04/12 06:46:25;;;;;;;4.60;2.10;;;9.60;99.90;;;;;;5066954;28;20997;-71
2023/04/12 06:49:11;;;;;;;2.60;1.80;;;9.70;99.90;;;;;;5062624;28;20435;-70
2023/04/12 06:51:57;;;;;;;2.53;1.77;;;9.80;99.90;;;;;;5067985;28;20447;-72
2023/04/12 06:54:42;;;;;;;3.70;2.07;;;9.90;99.90;;;;;;5061474;28;21022;-71
2023/04/12 06:57:28;;;;;;;4.63;2.37;;;9.80;99.90;;;;;;5057810;28;20576;-71
2023/04/12 07:00:14;;;;;;;4.53;2.33;;;9.80;99.90;;;;;;5061642;28;20413;-71
2023/04/12 07:03:02;;;;;;;3.80;1.97;;;9.80;99.90;;;;;;5061953;28;20451;-72
2023/04/12 07:05:47;;;;;;;2.00;1.43;;;9.80;99.90;;;;;;5055683;28;20459;-71
2023/04/12 07:08:34;;;;;;;4.53;2.17;;;9.80;99.90;;;;;;5063035;28;20452;-71
2023/04/12 07:11:21;;;;;;;2.33;1.93;;;9.70;99.90;;;;;;5060538;28;20435;-71
2023/04/12 07:14:06;;;;;;;4.83;1.77;;;9.60;99.90;;;;;;5055773;28;20869;-72
2023/04/12 07:16:52;;;;;;;3.10;1.80;;;9.70;99.90;;;;;;5058032;28;20844;-70
2023/04/12 07:19:40;;;;;;;5.60;2.63;;;9.70;99.90;;;;;;5063571;28;20408;-71
2023/04/12 07:22:26;;;;;;;3.67;2.00;;;9.80;99.90;;;;;;5059426;28;20432;-72
2023/04/12 07:25:12;;;;;;;6.00;2.90;;;9.80;99.90;;;;;;5061831;28;21099;-71
2023/04/12 07:27:57;;;;;;;3.13;1.67;;;9.80;99.90;;;;;;5058254;28;20460;-72
2023/04/12 07:30:43;;;;;;;3.37;2.10;;;9.90;99.90;;;;;;5055257;28;20482;-74
2023/04/12 07:33:29;;;;;;;6.30;3.50;;;10.00;99.90;;;;;;5060398;28;20416;-74
2023/04/12 07:36:19;;;;;;;5.70;2.80;;;10.00;99.90;;;;;;5057311;28;20998;-71
2023/04/12 07:39:05;;;;;;;7.43;3.00;;;10.00;99.90;;;;;;5061837;28;20529;-71
2023/04/12 07:41:51;;;;;;;2.67;1.90;;;10.10;99.90;;;;;;5058451;28;20922;-71
2023/04/12 07:44:36;;;;;;;2.77;1.87;;;10.10;99.90;;;;;;5057677;28;20812;-72
2023/04/12 07:47:22;;;;;;;4.47;1.57;;;10.20;99.90;;;;;;5060841;28;20461;-72
2023/04/12 07:50:09;;;;;;;2.67;1.60;;;10.20;99.90;;;;;;5062393;28;20470;-73
2023/04/12 07:53:17;;;;;;;3.00;1.60;;;10.30;99.90;;;;;;5057983;28;20443;-73
2023/04/12 07:56:05;;;;;;;2.87;1.40;;;10.30;99.90;;;;;;5054894;28;20997;-75
2023/04/12 07:58:50;;;;;;;2.90;1.47;;;10.30;99.90;;;;;;5060512;28;20561;-71
2023/04/12 08:01:36;;;;;;;4.90;2.00;;;10.40;99.90;;;;;;5057576;28;20494;-71
2023/04/12 08:04:21;;;;;;;3.20;1.50;;;10.40;99.90;;;;;;5059442;28;20970;-73
2023/04/12 08:07:07;;;;;;;3.30;1.50;;;10.20;99.90;;;;;;5058469;28;20510;-71
2023/04/12 08:09:54;;;;;;;3.00;1.80;;;10.30;99.90;;;;;;5063412;28;20581;-74
2023/04/12 08:12:40;;;;;;;2.30;1.37;;;10.20;99.90;;;;;;5055444;28;20436;-71
2023/04/12 08:15:25;;;;;;;4.90;2.07;;;10.30;99.90;;;;;;5056741;28;20442;-72
2023/04/12 08:18:11;;;;;;;7.80;2.27;;;10.30;99.90;;;;;;5062920;28;20526;-74
2023/04/12 08:20:58;;;;;;;4.40;1.73;;;10.30;99.90;;;;;;5056907;28;20424;-71
2023/04/12 08:23:43;;;;;;;3.73;1.97;;;10.40;99.90;;;;;;5068600;28;20797;-73
2023/04/12 08:26:30;;;;;;;2.80;1.97;;;10.40;99.90;;;;;;5064119;28;20506;-74
2023/04/12 08:29:17;;;;;;;4.07;2.37;;;10.40;99.90;;;;;;5064090;28;20566;-75
2023/04/12 08:32:04;;;;;;;8.27;1.80;;;10.40;99.90;;;;;;5057858;28;20399;-71
2023/04/12 08:34:49;;;;;;;4.00;1.87;;;10.40;99.90;;;;;;5062644;28;21034;-71
2023/04/12 08:37:35;;;;;;;2.30;1.57;;;10.40;99.90;;;;;;5053886;28;20517;-73
2023/04/12 08:40:21;;;;;;;2.73;1.57;;;10.50;99.90;;;;;;5055191;28;20424;-72
2023/04/12 08:43:08;;;;;;;2.90;1.70;;;10.60;99.90;;;;;;5062313;28;21079;-72
2023/04/12 08:45:56;;;;;;;2.80;1.63;;;10.60;99.90;;;;;;5069005;28;20423;-72
2023/04/12 08:48:44;;;;;;;3.60;1.90;;;10.60;99.90;;;;;;5067429;28;20500;-72
2023/04/12 08:51:32;;;;;;;2.93;1.87;;;10.60;99.90;;;;;;5064491;28;20551;-71
2023/04/12 08:54:17;;;;;;;3.07;1.83;;;10.60;99.90;;;;;;5064793;28;20514;-72
2023/04/12 08:57:05;;;;;;;8.30;2.03;;;10.60;99.90;;;;;;5067047;28;20531;-72
2023/04/12 08:59:53;;;;;;;3.07;2.00;;;10.70;99.90;;;;;;5062686;28;20591;-72
2023/04/12 09:02:41;;;;;;;3.30;1.97;;;10.80;99.90;;;;;;5065248;28;20445;-72
2023/04/12 09:05:29;;;;;;;4.13;2.23;;;10.80;99.90;;;;;;5059481;28;20473;-72
2023/04/12 09:08:16;;;;;;;5.97;2.47;;;10.80;99.90;;;;;;5060728;28;20461;-72
2023/04/12 09:11:02;;;;;;;3.37;1.73;;;10.80;99.90;;;;;;5064189;28;20530;-72
2023/04/12 09:13:47;;;;;;;3.60;2.40;;;10.80;99.90;;;;;;5064100;28;20514;-72
2023/04/12 09:16:39;;;;;;;4.40;2.00;;;10.90;99.90;;;;;;5062769;28;20470;-72
2023/04/12 09:19:32;;;;;;;6.20;2.40;;;10.90;99.90;;;;;;5057353;28;20445;-72
2023/04/12 09:22:18;;;;;;;3.67;2.43;;;11.00;99.90;;;;;;5062185;28;20459;-72
2023/04/12 09:25:04;;;;;;;6.27;2.37;;;11.00;99.90;;;;;;5065952;28;20447;-73
2023/04/12 09:27:51;;;;;;;5.80;2.17;;;11.00;99.90;;;;;;5058371;28;20490;-72
2023/04/12 09:30:42;;;;;;;4.70;2.20;;;11.00;99.90;;;;;;5067104;28;20464;-73
2023/04/12 09:33:36;;;;;;;7.60;2.53;;;11.00;99.90;;;;;;5070726;28;20425;-72
2023/04/12 09:36:22;;;;;;;6.20;2.53;;;11.10;99.90;;;;;;5070464;28;20981;-72
2023/04/12 09:39:08;;;;;;;13.43;3.10;;;11.10;99.90;;;;;;5066109;28;20941;-73
2023/04/12 09:42:04;;;;;;;7.73;2.67;;;11.30;99.90;;;;;;5066235;28;20429;-72
2023/04/12 09:44:50;;;;;;;7.43;2.40;;;11.30;99.90;;;;;;5064670;28;20428;-72
2023/04/12 09:47:39;;;;;;;7.30;2.40;;;11.30;99.90;;;;;;5066704;28;20466;-72
2023/04/12 09:50:28;;;;;;;10.53;3.03;;;11.30;99.90;;;;;;5064055;28;20517;-72
2023/04/12 09:53:17;;;;;;;7.97;2.90;;;11.40;99.90;;;;;;5067803;28;20925;-72
2023/04/12 09:56:04;;;;;;;4.73;2.60;;;11.40;99.90;;;;;;5060266;28;20426;-72
2023/04/12 09:58:52;;;;;;;5.33;2.40;;;11.30;99.90;;;;;;5066366;28;20782;-72
2023/04/12 10:01:39;;;;;;;6.83;3.90;;;11.30;99.90;;;;;;5067476;28;20521;-72
2023/04/12 10:04:26;;;;;;;7.53;2.50;;;11.30;99.90;;;;;;5064509;28;20439;-72
2023/04/12 10:07:13;;;;;;;5.80;2.53;;;11.20;99.90;;;;;;5062623;28;20436;-73
2023/04/12 10:10:01;;;;;;;7.17;2.63;;;11.20;99.90;;;;;;5056339;28;20451;-72
2023/04/12 10:12:48;;;;;;;7.23;2.73;;;11.20;99.90;;;;;;5067540;28;20401;-73
2023/04/12 10:15:35;;;;;;;5.00;2.70;;;11.20;99.90;;;;;;5057809;28;20429;-72
2023/04/12 10:18:23;;;;;;;8.90;3.30;;;11.20;99.90;;;;;;5061092;28;20443;-72
2023/04/12 10:21:09;;;;;;;5.73;2.50;;;11.20;99.90;;;;;;5069052;28;20438;-72
2023/04/12 10:23:57;;;;;;;4.77;2.70;;;11.20;99.90;;;;;;5060529;28;20985;-72
2023/04/12 10:26:43;;;;;;;7.10;2.70;;;11.20;99.90;;;;;;5070222;28;20395;-72
2023/04/12 10:29:31;;;;;;;6.53;2.97;;;11.20;99.90;;;;;;5058281;28;20453;-72
2023/04/12 10:32:21;;;;;;;5.00;2.80;;;11.20;99.90;;;;;;5067852;28;20425;-73
2023/04/12 10:35:10;;;;;;;4.73;2.67;;;11.20;99.90;;;;;;5057582;28;20465;-72
2023/04/12 10:38:00;;;;;;;5.97;3.10;;;11.20;99.90;;;;;;5065834;28;20987;-72
2023/04/12 10:41:08;;;;;;;6.00;3.13;;;11.20;99.90;;;;;;5058883;28;20805;-72
2023/04/12 10:44:25;;;;;;;9.40;3.40;;;11.30;99.90;;;;;;5060456;28;20425;-72
2023/04/12 10:47:11;;;;;;;5.70;3.07;;;11.30;99.90;;;;;;5067795;28;20518;-71
2023/04/12 10:50:23;;;;;;;7.97;2.90;;;11.40;99.90;;;;;;5058280;28;20443;-71
2023/04/12 10:53:23;;;;;;;6.50;3.80;;;11.40;99.90;;;;;;5060971;28;20437;-71
2023/04/12 10:56:40;;;;;;;8.67;3.47;;;11.50;99.90;;;;;;5058929;28;20517;-72
2023/04/12 10:59:26;;;;;;;11.03;3.77;;;11.50;99.90;;;;;;5066488;28;20783;-71
2023/04/12 11:02:12;;;;;;;10.73;2.90;;;11.60;99.90;;;;;;5054727;28;20476;-71
2023/04/12 11:05:08;;;;;;;7.20;3.00;;;11.60;99.90;;;;;;5056285;28;20423;-71
2023/04/12 11:07:54;;;;;;;9.43;2.97;;;11.60;99.90;;;;;;5056793;28;20524;-71
2023/04/12 11:10:41;;;;;;;9.50;3.00;;;11.70;99.90;;;;;;5062113;28;20441;-72
2023/04/12 11:13:29;;;;;;;5.20;3.27;;;11.70;99.90;;;;;;5066022;28;20561;-71
2023/04/12 11:16:15;;;;;;;15.13;3.40;;;11.50;99.90;;;;;;5062973;28;20531;-72
2023/04/12 11:19:00;;;;;;;5.90;2.80;;;11.60;99.90;;;;;;5059480;28;20615;-71
2023/04/12 11:21:47;;;;;;;4.77;2.97;;;11.50;99.90;;;;;;5059205;28;20398;-71
2023/04/12 11:24:33;;;;;;;9.27;3.27;;;11.50;99.90;;;;;;5058618;28;21163;-71
2023/04/12 11:27:20;;;;;;;7.30;2.90;;;11.60;99.90;;;;;;5062261;28;20445;-71
2023/04/12 11:30:09;;;;;;;6.07;2.53;;;11.60;99.90;;;;;;5069211;28;20576;-71
2023/04/12 11:32:54;;;;;;;6.83;3.37;;;11.60;99.90;;;;;;5061698;28;20958;-71
2023/04/12 11:35:43;;;;;;;6.27;3.10;;;11.60;99.90;;;;;;5060231;28;20989;-71
2023/04/12 11:38:29;;;;;;;7.20;3.23;;;11.70;99.90;;;;;;5057419;28;20445;-71
2023/04/12 11:41:15;;;;;;;6.10;3.23;;;11.70;99.90;;;;;;5066707;28;20534;-71
2023/04/12 11:44:01;;;;;;;5.90;3.07;;;11.70;99.90;;;;;;5061655;28;20415;-71
2023/04/12 11:46:48;;;;;;;5.77;2.87;;;11.70;99.90;;;;;;5060352;28;20430;-71
2023/04/12 11:49:34;;;;;;;11.43;3.73;;;11.70;99.90;;;;;;5062605;28;20587;-71
2023/04/12 11:52:21;;;;;;;4.23;2.30;;;11.70;99.90;;;;;;5061258;28;20997;-71
2023/04/12 11:55:09;;;;;;;8.80;2.90;;;11.80;99.90;;;;;;5064881;28;21073;-72
2023/04/12 11:57:55;;;;;;;4.47;2.87;;;11.80;99.90;;;;;;5055293;28;20440;-72
2023/04/12 12:00:42;;;;;;;9.80;2.83;;;11.90;99.90;;;;;;5056439;28;20566;-71
2023/04/12 12:03:29;;;;;;;7.57;2.63;;;11.90;99.90;;;;;;5059281;28;20498;-72
2023/04/12 12:06:15;;;;;;;3.63;2.30;;;12.00;99.90;;;;;;5066565;28;20518;-71
2023/04/12 12:09:02;;;;;;;5.90;3.30;;;12.00;99.90;;;;;;5061059;28;20457;-71
2023/04/12 12:11:48;;;;;;;5.27;2.73;;;12.00;99.90;;;;;;5061297;28;20473;-71
2023/04/12 12:14:35;;;;;;;5.83;2.83;;;12.10;99.90;;;;;;5057695;28;20456;-71
2023/04/12 12:17:21;;;;;;;9.30;3.40;;;12.10;99.90;;;;;;5055952;28;20436;-71
2023/04/12 12:20:20;;;;;;;10.83;3.30;;;12.10;99.90;;;;;;5064142;28;20445;-71
2023/04/12 12:23:05;;;;;;;5.03;2.33;;;12.20;99.90;;;;;;5065676;28;20849;-72
2023/04/12 12:25:51;;;;;;;4.77;2.50;;;12.20;99.90;;;;;;5063855;28;20505;-71
2023/04/12 12:28:37;;;;;;;6.40;2.57;;;12.30;99.90;;;;;;5062969;28;20422;-71
2023/04/12 12:31:25;;;;;;;3.13;2.53;;;12.30;99.90;;;;;;5071452;28;20484;-71
2023/04/12 12:34:13;;;;;;;4.50;2.70;;;12.20;99.90;;;;;;5068006;28;20419;-71
2023/04/12 12:37:00;;;;;;;3.70;2.47;;;12.30;99.90;;;;;;5060508;28;20464;-71
2023/04/12 12:40:10;;;;;;;7.50;3.00;;;12.40;99.90;;;;;;5066037;28;21020;-71
2023/04/12 12:42:56;;;;;;;6.77;4.70;;;12.40;99.90;;;;;;5061376;28;20711;-71
2023/04/12 12:45:42;;;;;;;5.73;3.07;;;12.50;99.90;;;;;;5064610;28;20993;-71
2023/04/12 12:48:27;;;;;;;6.00;3.00;;;12.50;99.90;;;;;;5066096;28;20526;-71
2023/04/12 12:51:16;;;;;;;3.90;2.60;;;12.50;99.90;;;;;;5060049;28;20465;-71
2023/04/12 12:54:03;;;;;;;6.60;2.67;;;12.50;99.90;;;;;;5061282;28;20457;-72
2023/04/12 12:56:49;;;;;;;7.23;2.47;;;12.50;99.90;;;;;;5060421;28;20476;-71
2023/04/12 12:59:35;;;;;;;5.23;2.50;;;12.50;99.90;;;;;;5066559;28;20445;-71
2023/04/12 13:02:20;;;;;;;7.30;2.80;;;12.60;99.90;;;;;;5061106;28;20415;-71
2023/04/12 13:05:07;;;;;;;4.37;2.60;;;12.60;99.90;;;;;;5059793;28;20647;-71
2023/04/12 13:07:52;;;;;;;4.80;2.80;;;12.50;99.90;;;;;;5061218;28;20509;-72
2023/04/12 13:10:39;;;;;;;6.97;3.10;;;12.50;99.90;;;;;;5061541;28;20911;-71
2023/04/12 13:13:25;;;;;;;8.40;2.70;;;12.40;99.90;;;;;;5060008;28;20462;-71
2023/04/12 13:16:10;;;;;;;4.37;2.93;;;12.30;99.90;;;;;;5064544;28;20460;-71
2023/04/12 13:18:56;;;;;;;14.20;2.90;;;12.30;99.90;;;;;;5057610;28;20456;-71
2023/04/12 13:21:42;;;;;;;9.30;3.13;;;12.20;99.90;;;;;;5056942;28;20485;-71
2023/04/12 13:24:27;;;;;;;5.73;3.10;;;12.10;99.90;;;;;;5063215;28;20460;-71
2023/04/12 13:27:15;;;;;;;8.03;3.10;;;12.10;99.90;;;;;;5057800;28;20440;-71
2023/04/12 13:30:00;;;;;;;7.03;2.93;;;12.20;99.90;;;;;;5063205;28;20537;-71
2023/04/12 13:32:46;;;;;;;6.10;3.13;;;12.20;99.90;;;;;;5060598;28;20443;-72
2023/04/12 13:35:32;;;;;;;6.30;2.53;;;12.20;99.90;;;;;;5063048;28;20862;-71
2023/04/12 13:38:17;;;;;;;4.73;2.47;;;12.20;99.90;;;;;;5064675;28;20419;-71
2023/04/12 13:41:03;;;;;;;5.97;2.93;;;12.20;99.90;;;;;;5060038;28;20440;-71
2023/04/12 13:43:50;;;;;;;3.20;2.57;;;12.20;99.90;;;;;;5055532;28;21087;-71
2023/04/12 13:46:36;;;;;;;3.90;2.70;;;12.30;99.90;;;;;;5060103;28;20970;-71
2023/04/12 13:49:21;;;;;;;7.20;2.63;;;12.40;99.90;;;;;;5061861;28;20440;-71
2023/04/12 13:52:07;;;;;;;8.97;2.87;;;12.40;99.90;;;;;;5064797;28;22578;-71
2023/04/12 13:54:53;;;;;;;3.87;2.30;;;12.40;99.90;;;;;;5059708;28;20522;-71
2023/04/12 13:57:39;;;;;;;4.43;2.47;;;12.40;99.90;;;;;;5061497;28;20427;-71
2023/04/12 14:00:26;;;;;;;6.93;2.73;;;12.30;99.90;;;;;;5065207;28;20785;-72
2023/04/12 14:03:11;;;;;;;3.93;2.70;;;12.30;99.90;;;;;;5064819;28;21044;-71
2023/04/12 14:05:59;;;;;;;4.97;2.97;;;12.30;99.90;;;;;;5061511;28;20589;-71
2023/04/12 14:08:44;;;;;;;6.50;2.93;;;12.30;99.90;;;;;;5059393;28;20445;-71
2023/04/12 14:11:30;;;;;;;9.80;3.63;;;12.30;99.90;;;;;;5067934;28;20467;-71
2023/04/12 14:14:16;;;;;;;5.43;3.20;;;12.40;99.90;;;;;;5059079;28;20413;-71
2023/04/12 14:17:03;;;;;;;4.27;2.67;;;12.50;99.90;;;;;;5065350;28;20465;-71
2023/04/12 14:19:49;;;;;;;4.60;2.87;;;12.40;99.90;;;;;;5058001;28;20481;-71
2023/04/12 14:22:34;;;;;;;5.30;2.77;;;12.50;99.90;;;;;;5061868;28;20433;-71
2023/04/12 14:25:20;;;;;;;5.60;2.90;;;12.50;99.90;;;;;;5059331;28;20464;-71
2023/04/12 14:28:05;;;;;;;6.37;3.50;;;12.50;99.90;;;;;;5064156;28;20448;-71
2023/04/12 14:30:51;;;;;;;9.03;3.60;;;12.60;99.90;;;;;;5064792;28;20431;-71
2023/04/12 14:33:38;;;;;;;9.80;3.10;;;12.60;99.90;;;;;;5057255;28;20407;-71